Time;durP1;ratioP1;P1;durP2;ratioP2;P2;SDS_P1;SDS_P2;PMS_P1;PMS_P2;Temp;Humidity;BMP_temperature;BMP_pressure;BME280_temperature;BME280_humidity;BME280_pressure;Samples;Min_cycle;Max_cycle;Signal;HPM_P1;HPM_P2
2020/12/09 00:02:13;;;;;;;18.00;9.93;;;;;;;0.86;62.86;100199.22;5091743;28;20082;-74
2020/12/09 00:04:39;;;;;;;17.27;7.75;;;;;;;0.84;62.72;100203.53;5092207;28;20414;-75
2020/12/09 00:07:05;;;;;;;19.80;9.45;;;;;;;0.83;62.65;100216.41;5091940;28;20060;-75
2020/12/09 00:09:31;;;;;;;18.15;10.77;;;;;;;0.84;62.83;100205.25;5092889;28;20102;-76
2020/12/09 00:11:58;;;;;;;17.33;10.30;;;;;;;0.82;62.78;100207.81;5092710;28;20048;-75
2020/12/09 00:14:24;;;;;;;23.95;10.82;;;;;;;0.80;62.72;100193.19;5091966;28;20044;-74
2020/12/09 00:16:52;;;;;;;23.27;9.93;;;;;;;0.79;62.71;100201.78;5091479;28;20484;-75
2020/12/09 00:19:18;;;;;;;18.98;9.35;;;;;;;0.75;62.75;100202.66;5091294;28;20143;-75
2020/12/09 00:21:44;;;;;;;21.95;9.32;;;;;;;0.73;62.95;100197.50;5091356;28;20125;-76
2020/12/09 00:24:10;;;;;;;20.17;9.52;;;;;;;0.76;62.77;100202.66;5091335;28;20130;-75
2020/12/09 00:26:37;;;;;;;20.58;10.05;;;;;;;0.80;62.87;100200.94;5091929;28;20128;-76
2020/12/09 00:29:05;;;;;;;25.42;12.43;;;;;;;0.77;63.07;100199.22;5093771;28;20131;-75
2020/12/09 00:31:32;;;;;;;18.60;10.70;;;;;;;0.78;62.97;100208.66;5094980;28;20058;-75
2020/12/09 00:34:01;;;;;;;16.13;9.40;;;;;;;0.79;63.09;100207.81;5094950;28;20138;-75
2020/12/09 00:36:28;;;;;;;23.80;11.80;;;;;;;0.81;62.84;100208.66;5094515;28;20458;-75
2020/12/09 00:38:55;;;;;;;19.85;8.57;;;;;;;0.80;62.86;100206.94;5094525;28;20044;-76
2020/12/09 00:41:23;;;;;;;20.38;8.90;;;;;;;0.80;62.63;100206.94;5094828;28;20556;-76
2020/12/09 00:43:50;;;;;;;26.10;13.52;;;;;;;0.79;62.75;100212.09;5094713;28;20044;-75
2020/12/09 00:46:16;;;;;;;24.20;11.55;;;;;;;0.74;63.01;100204.38;5094701;28;20127;-75
2020/12/09 00:48:43;;;;;;;19.50;9.73;;;;;;;0.75;62.73;100211.25;5094382;28;20568;-74
2020/12/09 00:51:14;;;;;;;25.10;12.23;;;;;;;0.70;63.14;100197.50;5094480;28;20503;-75
2020/12/09 00:53:40;;;;;;;17.77;10.02;;;;;;;0.70;62.94;100205.22;5094557;28;20136;-75
2020/12/09 00:56:08;;;;;;;26.27;12.93;;;;;;;0.74;62.88;100203.50;5094245;28;20077;-75
2020/12/09 00:58:34;;;;;;;25.40;13.00;;;;;;;0.74;62.77;100196.63;5095251;28;20058;-76
2020/12/09 01:01:00;;;;;;;21.73;9.73;;;;;;;0.69;62.93;100190.63;5094273;28;20128;-75
2020/12/09 01:03:27;;;;;;;23.00;12.43;;;;;;;0.71;62.98;100194.06;5094133;28;20178;-76
2020/12/09 01:05:53;;;;;;;23.08;11.30;;;;;;;0.69;62.82;100195.78;5093895;28;20055;-76
2020/12/09 01:08:20;;;;;;;23.60;12.75;;;;;;;0.67;63.11;100191.47;5094198;28;20348;-74
2020/12/09 01:10:46;;;;;;;12.70;7.93;;;;;;;0.67;63.18;100197.50;5094529;28;20083;-74
2020/12/09 01:13:13;;;;;;;21.67;9.55;;;;;;;0.64;62.94;100196.63;5094916;28;20488;-75
2020/12/09 01:15:39;;;;;;;19.48;9.98;;;;;;;0.63;62.88;100200.94;5093748;28;20080;-75
2020/12/09 01:18:05;;;;;;;19.55;10.88;;;;;;;0.61;63.03;100189.72;5093817;28;20131;-75
2020/12/09 01:20:32;;;;;;;24.58;11.82;;;;;;;0.60;63.03;100198.31;5093591;28;20094;-75
2020/12/09 01:22:58;;;;;;;23.48;11.88;;;;;;;0.58;63.34;100197.47;5095782;28;20142;-75
2020/12/09 01:25:25;;;;;;;14.63;8.40;;;;;;;0.58;63.05;100192.31;5094409;28;20159;-74
2020/12/09 01:27:53;;;;;;;18.00;10.60;;;;;;;0.61;62.91;100184.56;5093695;28;20131;-75
2020/12/09 01:30:19;;;;;;;22.00;11.57;;;;;;;0.60;63.31;100188.00;5095026;28;20048;-75
2020/12/09 01:32:45;;;;;;;16.27;9.18;;;;;;;0.60;63.08;100198.31;5094382;28;20438;-75
2020/12/09 01:35:12;;;;;;;26.50;13.02;;;;;;;0.57;63.16;100198.31;5093757;28;20079;-75
2020/12/09 01:37:38;;;;;;;22.90;12.63;;;;;;;0.57;63.13;100200.91;5093373;28;20090;-75
2020/12/09 01:40:04;;;;;;;22.85;12.23;;;;;;;0.55;63.15;100202.63;5093056;28;20101;-75
2020/12/09 01:42:31;;;;;;;25.27;10.90;;;;;;;0.55;63.23;100200.91;5093474;28;20068;-76
2020/12/09 01:44:57;;;;;;;21.83;10.93;;;;;;;0.52;63.02;100206.06;5094391;28;20080;-75
2020/12/09 01:47:24;;;;;;;21.20;11.20;;;;;;;0.49;63.39;100220.69;5093347;28;20087;-75
2020/12/09 01:49:50;;;;;;;21.73;10.63;;;;;;;0.45;63.19;100212.09;5093527;28;20044;-75
2020/12/09 01:52:17;;;;;;;25.10;12.43;;;;;;;0.42;63.23;100199.19;5093980;28;20072;-75
2020/12/09 01:54:43;;;;;;;28.75;14.32;;;;;;;0.43;63.34;100206.06;5093583;28;20079;-75
2020/12/09 01:57:11;;;;;;;28.77;12.80;;;;;;;0.42;63.16;100206.06;5093486;28;20082;-75
2020/12/09 01:59:40;;;;;;;23.42;11.65;;;;;;;0.37;63.33;100215.47;5093080;28;20056;-75
2020/12/09 02:02:09;;;;;;;18.17;8.75;;;;;;;0.39;63.36;100231.81;5093199;28;20139;-76
2020/12/09 02:04:36;;;;;;;22.85;10.68;;;;;;;0.38;63.38;100214.63;5092953;28;20087;-75
2020/12/09 02:07:02;;;;;;;25.30;10.77;;;;;;;0.38;63.29;100222.38;5093192;28;20135;-75
2020/12/09 02:09:29;;;;;;;22.85;11.57;;;;;;;0.38;63.31;100227.53;5093031;28;20076;-75
2020/12/09 02:11:57;;;;;;;23.05;11.23;;;;;;;0.37;63.32;100218.94;5092700;28;20076;-76
2020/12/09 02:14:23;;;;;;;28.67;12.55;;;;;;;0.38;62.96;100206.88;5093176;28;20079;-76
2020/12/09 02:16:51;;;;;;;22.77;12.50;;;;;;;0.37;63.22;100212.91;5093341;28;20040;-76
2020/12/09 02:19:18;;;;;;;25.38;12.45;;;;;;;0.33;62.98;100216.34;5093285;28;20071;-75
2020/12/09 02:21:45;;;;;;;27.33;11.70;;;;;;;0.27;62.94;100222.34;5092700;28;20127;-76
2020/12/09 02:24:12;;;;;;;15.77;8.05;;;;;;;0.23;63.10;100221.50;5093164;28;20083;-75
2020/12/09 02:26:41;;;;;;;17.92;11.52;;;;;;;0.18;63.20;100220.59;5093868;28;20079;-76
2020/12/09 02:29:08;;;;;;;17.95;9.52;;;;;;;0.17;63.10;100226.59;5093237;28;20059;-76
2020/12/09 02:31:35;;;;;;;24.13;10.27;;;;;;;0.10;63.22;100224.00;5092331;28;20492;-76
2020/12/09 02:34:01;;;;;;;25.35;11.57;;;;;;;0.04;63.25;100219.69;5092798;28;20126;-76
2020/12/09 02:36:27;;;;;;;27.13;12.68;;;;;;;-0.02;63.49;100224.81;5092524;28;20091;-75
2020/12/09 02:38:54;;;;;;;22.83;12.23;;;;;;;-0.01;63.33;100223.94;5092485;28;20087;-76
2020/12/09 02:41:20;;;;;;;27.95;12.02;;;;;;;-0.05;63.46;100222.22;5093538;28;20048;-75
2020/12/09 02:43:46;;;;;;;16.55;7.50;;;;;;;-0.09;63.31;100223.94;5092585;28;20452;-75
2020/12/09 02:46:13;;;;;;;14.43;8.15;;;;;;;-0.17;63.46;100225.63;5092431;28;20150;-75
2020/12/09 02:48:39;;;;;;;21.17;11.43;;;;;;;-0.26;63.94;100224.69;5092246;28;20044;-75
2020/12/09 02:51:05;;;;;;;22.27;11.25;;;;;;;-0.31;63.74;100209.22;5091804;28;20127;-76
2020/12/09 02:53:31;;;;;;;23.90;12.35;;;;;;;-0.37;64.13;100225.53;5092158;28;20087;-75
2020/12/09 02:55:58;;;;;;;26.27;12.95;;;;;;;-0.43;64.07;100230.63;5092277;28;20105;-76
2020/12/09 02:58:25;;;;;;;28.08;13.15;;;;;;;-0.47;64.32;100228.88;5092233;28;20131;-77
2020/12/09 03:00:52;;;;;;;29.38;13.05;;;;;;;-0.53;64.27;100230.56;5091976;28;20044;-76
2020/12/09 03:03:18;;;;;;;30.75;12.45;;;;;;;-0.58;64.32;100227.13;5091978;28;20117;-76
2020/12/09 03:05:44;;;;;;;27.10;13.68;;;;;;;-0.63;64.70;100227.06;5092421;28;20048;-76
2020/12/09 03:08:11;;;;;;;30.67;12.07;;;;;;;-0.67;64.81;100227.91;5091675;28;20105;-76
2020/12/09 03:10:37;;;;;;;33.03;15.23;;;;;;;-0.72;64.71;100225.28;5092145;28;20445;-76
2020/12/09 03:13:04;;;;;;;28.27;12.82;;;;;;;-0.76;64.90;100227.84;5091952;28;20445;-76
2020/12/09 03:15:30;;;;;;;35.72;14.95;;;;;;;-0.80;64.94;100236.41;5092236;28;20407;-76
2020/12/09 03:17:56;;;;;;;36.33;14.52;;;;;;;-0.83;65.03;100231.19;5091353;28;20444;-76
2020/12/09 03:20:22;;;;;;;37.22;16.88;;;;;;;-0.86;65.25;100238.91;5091942;28;20094;-77
2020/12/09 03:22:49;;;;;;;24.30;12.45;;;;;;;-0.89;65.18;100234.59;5092426;28;20044;-78
2020/12/09 03:25:15;;;;;;;36.15;16.42;;;;;;;-0.94;65.33;100221.72;5092466;28;20090;-77
2020/12/09 03:27:41;;;;;;;23.17;11.45;;;;;;;-0.97;65.44;100219.13;5091620;28;20538;-76
2020/12/09 03:30:08;;;;;;;33.47;13.80;;;;;;;-0.99;65.66;100225.97;5091868;28;20139;-76
2020/12/09 03:32:34;;;;;;;33.88;16.35;;;;;;;-0.99;65.43;100232.81;5091505;28;20411;-76
2020/12/09 03:35:01;;;;;;;40.72;16.50;;;;;;;-1.01;65.54;100227.66;5092252;28;20215;-76
2020/12/09 03:37:27;;;;;;;25.38;12.45;;;;;;;-1.02;65.46;100228.53;5091682;28;20086;-77
2020/12/09 03:39:53;;;;;;;30.17;13.57;;;;;;;-1.04;65.38;100226.75;5092293;28;20143;-76
2020/12/09 03:42:19;;;;;;;32.47;15.63;;;;;;;-1.07;65.83;100217.31;5091529;28;20075;-76
2020/12/09 03:44:45;;;;;;;38.85;17.17;;;;;;;-1.11;65.56;100225.84;5072770;28;20547;-76
2020/12/09 03:47:12;;;;;;;38.65;18.77;;;;;;;-1.11;65.82;100231.00;5071417;28;20083;-76
2020/12/09 03:49:38;;;;;;;39.15;17.63;;;;;;;-1.10;65.81;100214.72;5071608;28;20135;-76
2020/12/09 03:52:05;;;;;;;30.50;14.20;;;;;;;-1.13;65.84;100222.41;5071237;28;20103;-76
2020/12/09 03:54:31;;;;;;;17.55;9.43;;;;;;;-1.16;65.91;100213.81;5071756;28;20079;-75
2020/12/09 03:56:57;;;;;;;35.58;16.77;;;;;;;-1.18;65.82;100213.78;5071286;28;20496;-75
2020/12/09 03:59:23;;;;;;;27.20;14.00;;;;;;;-1.17;65.92;100215.53;5071405;28;20076;-75
2020/12/09 04:01:50;;;;;;;31.50;14.30;;;;;;;-1.19;66.07;100209.50;5072194;28;20075;-77
2020/12/09 04:04:17;;;;;;;39.08;15.88;;;;;;;-1.22;66.00;100222.34;5074000;28;20147;-75
2020/12/09 04:06:43;;;;;;;28.60;14.10;;;;;;;-1.24;66.19;100211.19;5075012;28;20052;-77
2020/12/09 04:09:10;;;;;;;23.88;12.93;;;;;;;-1.25;66.08;100215.47;5075368;28;20135;-76
2020/12/09 04:11:36;;;;;;;30.63;14.00;;;;;;;-1.27;66.20;100218.84;5076279;28;20532;-76
2020/12/09 04:14:02;;;;;;;26.50;11.77;;;;;;;-1.26;65.94;100220.56;5074944;28;20459;-75
2020/12/09 04:16:28;;;;;;;32.92;14.90;;;;;;;-1.24;65.89;100213.75;5074827;28;20057;-75
2020/12/09 04:18:54;;;;;;;37.75;16.63;;;;;;;-1.27;66.00;100213.69;5075926;28;20106;-76
2020/12/09 04:21:22;;;;;;;42.08;18.45;;;;;;;-1.28;66.16;100217.97;5075921;28;20084;-76
2020/12/09 04:23:48;;;;;;;31.35;15.98;;;;;;;-1.29;66.11;100221.41;5074910;28;20101;-76
2020/12/09 04:26:14;;;;;;;25.98;10.10;;;;;;;-1.31;66.02;100227.38;5074634;28;20496;-76
2020/12/09 04:28:40;;;;;;;21.45;8.77;;;;;;;-1.32;66.11;100221.38;5074671;28;20106;-78
2020/12/09 04:31:06;;;;;;;26.58;13.43;;;;;;;-1.34;66.06;100222.22;5077688;28;20459;-76
2020/12/09 04:33:32;;;;;;;38.80;16.50;;;;;;;-1.34;66.06;100219.66;5077691;28;20062;-76
2020/12/09 04:35:58;;;;;;;41.17;16.83;;;;;;;-1.34;66.03;100224.78;5075877;28;20079;-76
2020/12/09 04:38:26;;;;;;;39.28;18.98;;;;;;;-1.34;65.94;100217.06;5076134;28;20080;-76
2020/12/09 04:40:52;;;;;;;25.00;11.13;;;;;;;-1.36;65.88;100217.06;5077951;28;20068;-75
2020/12/09 04:43:18;;;;;;;40.17;16.50;;;;;;;-1.37;66.19;100225.63;5089389;28;20088;-74
2020/12/09 04:45:45;;;;;;;40.80;18.15;;;;;;;-1.38;66.11;100225.63;5074641;28;20080;-76
2020/12/09 04:48:13;;;;;;;32.72;16.00;;;;;;;-1.38;66.13;100230.75;5074108;28;20098;-76
2020/12/09 04:51:17;;;;;;;41.28;17.23;;;;;;;-1.40;66.20;100224.75;5074683;28;20044;-76
2020/12/09 04:53:44;;;;;;;41.15;17.73;;;;;;;-1.39;66.02;100223.91;5040804;28;20048;-75
2020/12/09 04:56:11;;;;;;;37.80;14.68;;;;;;;-1.43;66.06;100206.72;5074059;28;20132;-76
2020/12/09 04:58:41;;;;;;;39.70;17.30;;;;;;;-1.42;66.02;100221.31;5074679;28;20040;-75
2020/12/09 05:01:09;;;;;;;36.15;18.25;;;;;;;-1.45;66.11;100227.28;5074490;28;20045;-76
2020/12/09 05:03:42;;;;;;;27.38;13.60;;;;;;;-1.47;66.18;100230.66;5073831;28;20110;-76
2020/12/09 05:06:09;;;;;;;50.70;20.52;;;;;;;-1.46;66.15;100228.09;5079279;28;20093;-76
2020/12/09 05:08:36;;;;;;;16.58;9.65;;;;;;;-1.46;65.93;100229.81;5096273;28;20077;-76
2020/12/09 05:11:07;;;;;;;43.72;17.80;;;;;;;-1.48;66.24;100234.06;5094076;28;20048;-76
2020/12/09 05:13:35;;;;;;;31.92;17.00;;;;;;;-1.49;66.22;100230.63;5095041;28;20052;-75
2020/12/09 05:16:03;;;;;;;35.13;14.73;;;;;;;-1.50;66.00;100230.63;5094270;28;20113;-76
2020/12/09 05:18:38;;;;;;;39.53;17.83;;;;;;;-1.51;66.13;100234.03;5094019;28;20048;-75
2020/12/09 05:21:10;;;;;;;52.20;17.98;;;;;;;-1.49;66.35;100232.34;5093828;28;20044;-75
2020/12/09 05:23:43;;;;;;;39.88;18.75;;;;;;;-1.49;66.08;100237.50;5093915;28;20434;-76
2020/12/09 05:26:12;;;;;;;41.00;17.20;;;;;;;-1.51;66.27;100241.75;5093944;28;20078;-76
2020/12/09 05:28:38;;;;;;;42.40;19.27;;;;;;;-1.51;66.26;100236.63;5093620;28;20076;-76
2020/12/09 05:31:04;;;;;;;36.25;20.48;;;;;;;-1.52;66.13;100251.19;5094384;28;20416;-77
2020/12/09 05:33:32;;;;;;;41.70;16.63;;;;;;;-1.54;65.98;100240.03;5093896;28;20476;-76
2020/12/09 05:36:00;;;;;;;42.60;18.08;;;;;;;-1.56;66.18;100242.56;5093497;28;20505;-75
2020/12/09 05:38:27;;;;;;;24.88;11.40;;;;;;;-1.54;65.99;100243.44;5093223;28;20071;-76
2020/12/09 05:40:54;;;;;;;38.22;15.95;;;;;;;-1.56;66.04;100247.72;5093657;28;20123;-76
2020/12/09 05:43:22;;;;;;;46.45;17.33;;;;;;;-1.56;66.06;100250.28;5094667;28;20101;-75
2020/12/09 05:45:49;;;;;;;37.08;17.10;;;;;;;-1.57;65.74;100246.00;5095311;28;20091;-75
2020/12/09 05:48:17;;;;;;;32.60;13.73;;;;;;;-1.58;65.99;100249.41;5094132;28;20048;-76
2020/12/09 05:50:50;;;;;;;43.45;18.55;;;;;;;-1.59;66.08;100242.56;5093462;28;20142;-76
2020/12/09 05:53:18;;;;;;;39.10;16.60;;;;;;;-1.55;65.93;100259.72;5093213;28;20044;-76
2020/12/09 05:55:45;;;;;;;36.70;16.55;;;;;;;-1.50;65.90;100258.91;5093365;28;20139;-75
2020/12/09 05:58:25;;;;;;;35.80;17.83;;;;;;;-1.51;65.69;100252.91;5095475;28;20487;-77
2020/12/09 06:01:08;;;;;;;36.05;17.00;;;;;;;-1.47;65.77;100246.06;5095063;28;20154;-76
2020/12/09 06:03:35;;;;;;;19.75;10.50;;;;;;;-1.44;65.70;100251.28;5100353;28;20488;-76
2020/12/09 06:06:13;;;;;;;22.13;10.40;;;;;;;-1.43;65.77;100251.28;5104284;28;20170;-76
2020/12/09 06:08:42;;;;;;;37.10;18.02;;;;;;;-1.38;65.83;100248.75;5097051;28;20110;-76
2020/12/09 06:11:09;;;;;;;43.50;16.38;;;;;;;-1.35;65.70;100252.22;5093470;28;20090;-76
2020/12/09 06:13:36;;;;;;;46.83;19.98;;;;;;;-1.34;65.51;100258.22;5093004;28;20076;-76
2020/12/09 06:16:04;;;;;;;30.83;13.45;;;;;;;-1.32;65.34;100264.25;5092959;28;20040;-75
2020/12/09 06:18:31;;;;;;;32.22;14.80;;;;;;;-1.30;65.25;100265.13;5092616;28;20086;-74
2020/12/09 06:20:58;;;;;;;40.90;18.95;;;;;;;-1.30;65.27;100265.97;5092563;28;20048;-76
2020/12/09 06:23:27;;;;;;;26.05;12.85;;;;;;;-1.29;65.33;100261.69;5092362;28;20468;-76
2020/12/09 06:25:54;;;;;;;38.25;18.80;;;;;;;-1.30;65.48;100259.97;5092151;28;20087;-76
2020/12/09 06:28:22;;;;;;;28.20;13.50;;;;;;;-1.30;65.45;100254.81;5092338;28;20087;-75
2020/12/09 06:30:51;;;;;;;25.88;13.60;;;;;;;-1.29;65.13;100256.56;5092480;28;20345;-75
2020/12/09 06:33:35;;;;;;;37.72;14.98;;;;;;;-1.28;65.36;100246.28;5092460;28;20098;-76
2020/12/09 06:36:26;;;;;;;28.13;11.32;;;;;;;-1.25;65.39;100260.88;5081067;28;20049;-74
2020/12/09 06:39:16;;;;;;;39.65;19.60;;;;;;;-1.29;65.44;100251.41;5068790;28;20047;-75
2020/12/09 06:42:09;;;;;;;39.80;19.52;;;;;;;-1.31;65.62;100258.25;5095137;28;20487;-76
2020/12/09 06:44:50;;;;;;;50.05;19.52;;;;;;;-1.34;65.45;100258.22;5090442;28;20582;-76
2020/12/09 06:47:17;;;;;;;44.72;19.00;;;;;;;-1.30;65.24;100267.69;5087382;28;20051;-74
2020/12/09 06:49:45;;;;;;;49.22;21.75;;;;;;;-1.28;65.41;100259.13;5089061;28;20135;-76
2020/12/09 06:52:30;;;;;;;39.42;17.88;;;;;;;-1.24;65.47;100257.47;5085396;28;20050;-76
2020/12/09 06:54:56;;;;;;;43.50;18.08;;;;;;;-1.19;65.45;100258.38;5081521;28;20078;-76
2020/12/09 06:57:33;;;;;;;33.95;15.68;;;;;;;-1.21;65.51;100260.06;5079741;28;20068;-76
2020/12/09 07:00:20;;;;;;;53.28;20.55;;;;;;;-1.21;65.43;100256.66;5081978;28;20055;-76
2020/12/09 07:02:49;;;;;;;36.97;17.65;;;;;;;-1.18;65.36;100262.66;5079749;28;20536;-76
2020/12/09 07:05:20;;;;;;;46.58;18.20;;;;;;;-1.18;65.29;100264.38;5079248;28;20072;-76
2020/12/09 07:07:50;;;;;;;30.60;13.35;;;;;;;-1.18;65.46;100260.09;5090131;28;20051;-76
2020/12/09 07:10:25;;;;;;;46.78;20.58;;;;;;;-1.16;65.35;100257.53;5098863;28;20075;-76
2020/12/09 07:13:00;;;;;;;40.42;16.63;;;;;;;-1.17;65.47;100260.97;5100353;28;20134;-77
2020/12/09 07:15:27;;;;;;;52.13;24.98;;;;;;;-1.13;65.42;100258.44;5092731;28;20078;-77
2020/12/09 07:17:54;;;;;;;36.58;16.20;;;;;;;-1.09;65.43;100257.59;5091764;28;20046;-77
2020/12/09 07:20:21;;;;;;;37.72;14.00;;;;;;;-1.06;65.31;100249.91;5106030;28;20387;-76
2020/12/09 07:22:47;;;;;;;27.50;13.88;;;;;;;-1.01;65.12;100247.38;5099368;28;20076;-76
2020/12/09 07:25:13;;;;;;;38.28;19.23;;;;;;;-1.04;65.21;100261.09;5106016;28;20089;-76
2020/12/09 07:27:39;;;;;;;44.72;17.52;;;;;;;-1.02;65.12;100258.53;5110257;28;20097;-76
2020/12/09 07:30:08;;;;;;;37.17;15.68;;;;;;;-1.04;65.17;100250.81;5091760;28;20101;-78
2020/12/09 07:32:35;;;;;;;51.38;23.00;;;;;;;-1.05;65.35;100256.78;5095501;28;20045;-75
2020/12/09 07:35:04;;;;;;;49.47;21.38;;;;;;;-1.00;65.16;100255.13;5092110;28;20103;-76
2020/12/09 07:37:33;;;;;;;28.73;12.65;;;;;;;-0.94;65.08;100254.31;5094402;28;20134;-76
2020/12/09 07:40:08;;;;;;;50.75;23.50;;;;;;;-0.96;65.46;100262.00;5096974;28;20141;-76
2020/12/09 07:42:34;;;;;;;43.33;19.83;;;;;;;-0.92;65.22;100261.19;5095215;28;20055;-77
2020/12/09 07:45:00;;;;;;;47.03;19.02;;;;;;;-0.89;65.16;100264.63;5095813;28;20060;-77
2020/12/09 07:47:28;;;;;;;55.70;22.50;;;;;;;-0.90;65.00;100256.03;5096587;28;20539;-75
2020/12/09 07:49:56;;;;;;;34.45;15.90;;;;;;;-0.92;65.05;100262.91;5095337;28;20059;-77
2020/12/09 07:52:26;;;;;;;49.20;19.85;;;;;;;-0.92;65.28;100263.75;5111527;28;20079;-77
2020/12/09 07:54:54;;;;;;;29.08;15.13;;;;;;;-0.90;65.04;100266.34;5096066;28;20511;-76
2020/12/09 07:57:25;;;;;;;41.38;19.75;;;;;;;-0.90;65.11;100265.47;5095652;28;20048;-78
2020/12/09 07:59:55;;;;;;;37.70;16.90;;;;;;;-0.89;65.29;100265.47;5097647;28;20515;-78
2020/12/09 08:02:22;;;;;;;34.33;15.67;;;;;;;-0.83;64.80;100264.66;5097379;28;20509;-77
2020/12/09 08:05:05;;;;;;;35.72;16.58;;;;;;;-0.84;64.79;100262.94;5096404;28;20543;-75
2020/12/09 08:07:32;;;;;;;38.15;17.10;;;;;;;-0.88;65.04;100259.50;5100200;28;20036;-77
2020/12/09 08:10:08;;;;;;;45.30;22.55;;;;;;;-0.89;65.20;100259.47;5081530;28;20056;-78
2020/12/09 08:12:36;;;;;;;25.75;14.82;;;;;;;-0.87;65.13;100257.78;5077212;28;20044;-78
2020/12/09 08:15:04;;;;;;;40.28;18.15;;;;;;;-0.83;65.21;100262.09;5094985;28;20044;-77
2020/12/09 08:17:30;;;;;;;41.63;18.20;;;;;;;-0.80;65.25;100268.16;5095889;28;20087;-77
2020/12/09 08:20:01;;;;;;;28.60;14.00;;;;;;;-0.77;65.32;100267.31;5094569;28;20086;-74
2020/12/09 08:22:28;;;;;;;;;;;;;;;-0.73;64.91;100264.75;5094744;28;20064;-75
2020/12/09 08:25:03;;;;;;;38.58;15.70;;;;;;;-0.88;65.37;100264.63;5093391;28;20393;-76
2020/12/09 08:27:29;;;;;;;40.67;18.85;;;;;;;-0.88;65.07;100280.06;5093317;28;20080;-75
2020/12/09 08:29:56;;;;;;;48.47;21.10;;;;;;;-0.85;65.17;100284.38;5093223;28;20044;-76
2020/12/09 08:32:23;;;;;;;38.00;18.55;;;;;;;-0.82;65.28;100279.28;5093577;28;20436;-75
2020/12/09 08:35:08;;;;;;;55.20;23.38;;;;;;;-0.82;65.45;100267.28;5093776;28;20123;-74
2020/12/09 08:37:43;;;;;;;47.92;21.90;;;;;;;-0.78;65.25;100270.72;5093479;28;20167;-74
2020/12/09 08:40:10;;;;;;;55.95;24.23;;;;;;;-0.71;65.32;100273.34;5094659;28;20044;-75
2020/12/09 08:42:37;;;;;;;40.42;19.95;;;;;;;-0.66;64.97;100263.09;5092806;28;20073;-74
2020/12/09 08:45:03;;;;;;;43.75;20.27;;;;;;;-0.69;65.09;100260.50;5094645;28;20074;-75
2020/12/09 08:47:30;;;;;;;52.60;24.88;;;;;;;-0.74;65.24;100257.91;5098191;28;20414;-76
2020/12/09 08:49:56;;;;;;;54.08;20.98;;;;;;;-0.69;65.36;100263.06;5089459;28;20209;-75
2020/12/09 08:52:27;;;;;;;54.63;25.42;;;;;;;-0.62;65.32;100263.16;5088989;28;20475;-75
2020/12/09 08:54:53;;;;;;;39.00;16.85;;;;;;;-0.54;65.13;100264.91;5096528;28;20164;-75
2020/12/09 08:57:20;;;;;;;46.45;21.60;;;;;;;-0.56;65.17;100266.59;5104960;28;20051;-75
2020/12/09 08:59:46;;;;;;;28.65;14.65;;;;;;;-0.54;65.31;100255.47;5095859;28;20047;-76
2020/12/09 09:02:13;;;;;;;28.45;14.05;;;;;;;-0.52;65.37;100263.19;5095105;28;20105;-75
2020/12/09 09:04:39;;;;;;;40.67;19.90;;;;;;;-0.56;65.28;100264.88;5094707;28;20060;-76
2020/12/09 09:07:05;;;;;;;43.92;19.27;;;;;;;-0.50;65.29;100272.66;5096377;28;20052;-75
2020/12/09 09:09:32;;;;;;;27.58;14.50;;;;;;;-0.47;65.11;100270.09;5076525;28;20094;-75
2020/12/09 09:11:59;;;;;;;47.35;19.63;;;;;;;-0.48;64.99;100273.50;5072907;28;20060;-75
2020/12/09 09:14:26;;;;;;;40.25;19.35;;;;;;;-0.43;65.33;100273.53;5084379;28;20080;-76
2020/12/09 09:16:53;;;;;;;32.55;16.08;;;;;;;-0.37;64.92;100282.19;5099845;28;20048;-76
2020/12/09 09:19:19;;;;;;;60.67;23.38;;;;;;;-0.39;65.00;100271.03;5095650;28;20079;-76
2020/12/09 09:21:45;;;;;;;27.98;14.77;;;;;;;-0.41;65.29;100288.19;5092674;28;20089;-75
2020/12/09 09:24:12;;;;;;;38.45;19.55;;;;;;;-0.47;65.25;100280.38;5092359;28;20044;-74
2020/12/09 09:26:38;;;;;;;51.92;22.15;;;;;;;-0.45;65.24;100286.41;5092740;28;20139;-74
2020/12/09 09:29:04;;;;;;;35.85;15.88;;;;;;;-0.35;65.24;100280.47;5091917;28;20127;-74
2020/12/09 09:31:31;;;;;;;52.58;23.92;;;;;;;-0.35;65.26;100282.19;5092177;28;20048;-74
2020/12/09 09:33:57;;;;;;;48.20;21.42;;;;;;;-0.36;65.06;100268.47;5091787;28;20267;-73
2020/12/09 09:36:28;;;;;;;57.05;26.85;;;;;;;-0.36;65.31;100275.31;5092366;28;20048;-74
2020/12/09 09:38:55;;;;;;;48.70;22.17;;;;;;;-0.27;65.17;100275.38;5092104;28;20523;-74
2020/12/09 09:41:21;;;;;;;57.65;26.25;;;;;;;-0.28;65.24;100273.66;5091826;28;20058;-73
2020/12/09 09:43:47;;;;;;;34.67;17.08;;;;;;;-0.32;65.19;100270.19;5091355;28;20078;-73
2020/12/09 09:46:13;;;;;;;46.65;17.52;;;;;;;-0.34;65.45;100259.03;5091841;28;20056;-72
2020/12/09 09:48:41;;;;;;;61.83;24.98;;;;;;;-0.35;65.69;100259.00;5091534;28;20036;-73
2020/12/09 09:51:08;;;;;;;29.83;14.18;;;;;;;-0.35;65.53;100262.44;5092289;28;20052;-71
2020/12/09 09:53:34;;;;;;;33.55;17.10;;;;;;;-0.36;65.50;100265.88;5091854;28;20355;-72
2020/12/09 09:56:00;;;;;;;46.17;21.30;;;;;;;-0.36;65.62;100265.88;5091316;28;20602;-74
2020/12/09 09:58:26;;;;;;;40.67;18.10;;;;;;;-0.31;65.45;100264.19;5092520;28;20332;-73
2020/12/09 10:00:53;;;;;;;52.05;21.00;;;;;;;-0.31;65.56;100264.19;5102935;28;20052;-74
2020/12/09 10:03:19;;;;;;;53.42;22.48;;;;;;;-0.29;65.47;100271.06;5105566;28;20127;-73
2020/12/09 10:05:46;;;;;;;47.65;21.30;;;;;;;-0.26;65.64;100260.78;5096004;28;20056;-73
2020/12/09 10:08:12;;;;;;;51.90;21.10;;;;;;;-0.23;65.08;100271.09;5090778;28;20106;-73
2020/12/09 10:10:38;;;;;;;43.45;19.02;;;;;;;-0.20;65.32;100273.72;5092448;28;20138;-73
2020/12/09 10:13:04;;;;;;;28.80;13.52;;;;;;;-0.22;65.26;100273.66;5106480;28;20098;-73
2020/12/09 10:15:31;;;;;;;44.65;17.33;;;;;;;-0.22;65.19;100268.50;5099914;28;20054;-75
2020/12/09 10:17:57;;;;;;;52.35;23.08;;;;;;;-0.16;65.36;100259.97;5107693;28;20554;-74
2020/12/09 10:20:23;;;;;;;50.30;22.30;;;;;;;-0.09;64.95;100259.16;5091399;28;20052;-72
2020/12/09 10:22:51;;;;;;;55.50;22.38;;;;;;;-0.08;65.23;100253.13;5090747;28;20048;-74
2020/12/09 10:25:17;;;;;;;51.50;20.50;;;;;;;-0.05;65.02;100259.16;5087338;28;20431;-74
2020/12/09 10:27:43;;;;;;;48.03;21.20;;;;;;;-0.01;64.94;100257.44;5090653;28;20452;-74
2020/12/09 10:30:09;;;;;;;47.60;20.15;;;;;;;-0.03;65.05;100259.16;5105766;28;20142;-75
2020/12/09 10:32:35;;;;;;;52.65;20.48;;;;;;;0.01;64.92;100260.94;5098263;28;20472;-75
2020/12/09 10:35:02;;;;;;;58.38;27.75;;;;;;;0.01;64.80;100254.91;5100196;28;20122;-74
2020/12/09 10:37:28;;;;;;;51.75;19.83;;;;;;;0.01;64.72;100260.06;5097704;28;20052;-74
2020/12/09 10:39:55;;;;;;;52.72;25.25;;;;;;;0.03;64.82;100261.78;5098776;28;20429;-75
2020/12/09 10:42:22;;;;;;;43.20;19.70;;;;;;;0.04;64.84;100255.78;5113057;28;20043;-75
2020/12/09 10:44:49;;;;;;;50.22;22.13;;;;;;;0.03;64.78;100254.06;5092718;28;20047;-75
2020/12/09 10:47:16;;;;;;;43.90;19.42;;;;;;;0.06;64.58;100250.63;5105676;28;20353;-73
2020/12/09 10:49:44;;;;;;;29.65;15.15;;;;;;;0.04;64.67;100255.78;5109841;28;20044;-75
2020/12/09 10:52:11;;;;;;;47.08;21.80;;;;;;;0.01;64.78;100250.63;5096803;28;20090;-75
2020/12/09 10:54:37;;;;;;;48.78;20.95;;;;;;;0.03;64.69;100238.59;5091281;28;20048;-69
2020/12/09 10:57:05;;;;;;;46.75;22.58;;;;;;;0.06;65.00;100238.59;5099903;28;20044;-69
2020/12/09 10:59:31;;;;;;;51.63;21.38;;;;;;;0.11;64.60;100236.91;5090375;28;20535;-69
2020/12/09 11:01:57;;;;;;;46.67;20.75;;;;;;;0.17;64.41;100236.06;5090440;28;20400;-69
2020/12/09 11:04:24;;;;;;;57.55;23.15;;;;;;;0.18;64.66;100241.22;5089872;28;20052;-69
2020/12/09 11:06:50;;;;;;;42.35;18.45;;;;;;;0.15;64.33;100235.19;5090133;28;20538;-68
2020/12/09 11:09:16;;;;;;;46.78;19.00;;;;;;;0.14;64.71;100242.06;5090631;28;20083;-70
2020/12/09 11:11:46;;;;;;;49.05;22.77;;;;;;;0.12;64.57;100253.22;5090161;28;20048;-69
2020/12/09 11:14:13;;;;;;;50.17;21.38;;;;;;;0.08;64.72;100239.47;5090102;28;20059;-69
2020/12/09 11:16:39;;;;;;;37.28;15.80;;;;;;;0.08;64.61;100242.06;5091171;28;20052;-69